Time;durP1;ratioP1;P1;durP2;ratioP2;P2;SDS_P1;SDS_P2;PMS_P1;PMS_P2;Temp;Humidity;BMP_temperature;BMP_pressure;BME280_temperature;BME280_humidity;BME280_pressure;Samples;Min_cycle;Max_cycle;Signal;HPM_P1;HPM_P2
2021/07/16 00:00:17;;;;;;;0.10;0.10;;;;;;;20.41;58.93;102204.75;4990638;28;20129;-95
2021/07/16 00:02:53;;;;;;;0.32;0.32;;;;;;;20.32;59.28;102195.19;5015433;28;20046;-96
2021/07/16 00:05:22;;;;;;;0.20;0.20;;;;;;;20.27;59.13;102199.91;4994310;28;20110;-96
2021/07/16 00:08:00;;;;;;;0.10;0.10;;;;;;;20.34;58.89;102205.94;5016208;28;20058;-96
2021/07/16 00:10:28;;;;;;;0.52;0.52;;;;;;;20.35;58.65;102208.56;4968455;28;20089;-96
2021/07/16 00:12:59;;;;;;;0.10;0.10;;;;;;;20.31;59.00;102206.03;5013184;28;20026;-96
2021/07/16 00:15:28;;;;;;;0.15;0.15;;;;;;;20.41;58.63;102217.31;4998673;28;20053;-96
2021/07/16 00:17:56;;;;;;;0.10;0.10;;;;;;;20.35;58.97;102207.69;5014070;28;20034;-96
2021/07/16 00:20:23;;;;;;;0.10;0.10;;;;;;;20.34;58.68;102212.19;5014829;28;20030;-94
2021/07/16 00:23:13;;;;;;;0.10;0.10;;;;;;;20.45;58.50;102218.94;4999491;28;20034;-96
2021/07/16 00:25:46;;;;;;;0.10;0.10;;;;;;;20.34;58.81;102219.38;5017559;28;20035;-96
2021/07/16 00:28:17;;;;;;;0.10;0.10;;;;;;;20.40;58.60;102212.88;4971622;28;20065;-96
2021/07/16 00:31:08;;;;;;;0.10;0.10;;;;;;;20.24;58.58;102216.19;5379424;23;20039;-96
2021/07/16 00:33:42;;;;;;;0.10;0.10;;;;;;;20.26;58.63;102224.19;4996909;28;20039;-91
2021/07/16 00:49:01;;;;;;;1.60;1.27;;;;;;;20.33;58.43;102228.41;5002419;28;20050;-95
2021/07/16 00:51:28;;;;;;;0.10;0.10;;;;;;;20.08;58.21;102236.53;5007528;28;20030;-95
2021/07/16 00:53:54;;;;;;;0.60;0.60;;;;;;;20.19;58.55;102220.88;5007698;28;20026;-96
2021/07/16 00:56:21;;;;;;;0.80;0.63;;;;;;;20.02;58.62;102238.50;5008698;28;20113;-96
2021/07/16 00:58:48;;;;;;;0.10;0.10;;;;;;;20.12;58.33;102233.66;5005161;28;20078;-96
2021/07/16 01:01:17;;;;;;;0.57;0.57;;;;;;;20.06;58.25;102230.34;5006289;28;20080;-95
2021/07/16 01:03:44;;;;;;;0.20;0.20;;;;;;;20.09;58.40;102228.41;4991663;28;20113;-96
2021/07/16 01:06:11;;;;;;;0.10;0.10;;;;;;;20.23;58.00;102235.09;4986319;28;20473;-96
2021/07/16 01:08:38;;;;;;;0.32;0.32;;;;;;;20.15;57.70;102238.03;5005623;28;20097;-96
2021/07/16 01:11:05;;;;;;;0.32;0.32;;;;;;;20.16;57.96;102237.13;5005381;28;20039;-96
2021/07/16 01:13:32;;;;;;;0.20;0.20;;;;;;;20.21;58.07;102232.44;5006736;28;20042;-96
2021/07/16 01:15:59;;;;;;;0.20;0.20;;;;;;;20.21;57.97;102240.50;5006114;28;20034;-96
2021/07/16 01:18:27;;;;;;;4.20;0.50;;;;;;;20.22;57.66;102247.66;5005737;28;20034;-95
2021/07/16 01:20:54;;;;;;;1.00;0.98;;;;;;;20.17;57.61;102250.50;4974142;28;20110;-96
2021/07/16 01:23:24;;;;;;;0.10;0.10;;;;;;;20.08;57.49;102242.78;5005886;28;20030;-96
2021/07/16 01:25:52;;;;;;;0.10;0.10;;;;;;;20.18;57.42;102243.31;5004293;28;20038;-96
2021/07/16 01:28:20;;;;;;;1.75;1.65;;;;;;;20.20;57.68;102241.47;5004493;28;20031;-96
2021/07/16 01:30:48;;;;;;;0.10;0.10;;;;;;;20.20;57.73;102241.47;5003019;28;20030;-96
2021/07/16 01:33:15;;;;;;;0.40;0.40;;;;;;;20.01;57.81;102243.94;5005547;28;20081;-96
2021/07/16 01:35:42;;;;;;;0.40;0.40;;;;;;;20.14;57.77;102252.47;4988763;28;20062;-96
2021/07/16 01:38:58;;;;;;;1.65;0.75;;;;;;;20.09;57.21;102249.94;5012427;28;20097;-95
2021/07/16 01:41:24;;;;;;;0.70;0.70;;;;;;;19.88;57.38;102240.84;5115571;23;20050;-96
2021/07/16 01:43:51;;;;;;;0.17;0.17;;;;;;;19.83;56.75;102251.78;5008005;28;20038;-96
2021/07/16 01:46:19;;;;;;;0.10;0.10;;;;;;;19.72;57.39;102252.13;5055789;23;20046;-96
2021/07/16 01:48:49;;;;;;;0.40;0.40;;;;;;;19.84;57.11;102245.47;5009682;28;20026;-96
2021/07/16 01:51:19;;;;;;;0.73;0.73;;;;;;;19.79;56.90;102246.53;5006081;28;20077;-96
2021/07/16 01:53:50;;;;;;;0.40;0.40;;;;;;;19.84;57.06;102249.97;5011591;28;20014;-93
2021/07/16 01:56:23;;;;;;;0.20;0.20;;;;;;;19.83;57.07;102251.78;5008856;28;20034;-96
2021/07/16 01:58:51;;;;;;;0.20;0.20;;;;;;;19.70;57.30;102256.69;5008733;28;20046;-95
2021/07/16 02:01:17;;;;;;;0.10;0.10;;;;;;;19.88;57.07;102254.31;5014698;28;20014;-96
2021/07/16 02:03:48;;;;;;;0.10;0.10;;;;;;;19.84;57.00;102260.75;5019090;28;20015;-96
2021/07/16 02:08:54;;;;;;;0.20;0.20;;;;;;;19.80;57.09;102253.66;5000810;23;20051;-96
2021/07/16 02:11:23;;;;;;;0.10;0.10;;;;;;;19.68;57.24;102255.00;5006920;28;20101;-96
2021/07/16 02:13:51;;;;;;;0.98;0.43;;;;;;;19.71;57.15;102255.78;5007587;28;20045;-96
2021/07/16 02:16:24;;;;;;;0.08;0.08;;;;;;;19.58;56.57;102257.13;5008110;28;20093;-95
2021/07/16 02:18:52;;;;;;;0.52;0.52;;;;;;;19.67;56.77;102254.09;5007804;28;20035;-96
2021/07/16 02:21:19;;;;;;;0.65;0.65;;;;;;;19.68;56.57;102249.63;5007911;28;20035;-96
2021/07/16 02:24:25;;;;;;;0.35;0.17;;;;;;;19.53;56.23;102261.81;5010071;28;20034;-96
2021/07/16 02:29:20;;;;;;;0.10;0.10;;;;;;;19.66;56.21;102257.72;5037198;23;20050;-96
2021/07/16 02:31:51;;;;;;;0.30;0.30;;;;;;;19.68;56.23;102260.38;4987208;28;20378;-94
2021/07/16 02:34:17;;;;;;;0.20;0.20;;;;;;;19.45;56.02;102258.50;4983319;28;20066;-96
2021/07/16 02:36:45;;;;;;;0.30;0.30;;;;;;;19.51;55.96;102263.66;4986665;28;20039;-96
2021/07/16 02:39:12;;;;;;;0.75;0.75;;;;;;;19.50;56.05;102261.88;4985675;28;20058;-96
2021/07/16 02:41:38;;;;;;;0.30;0.30;;;;;;;19.49;56.15;102261.03;4984139;28;20039;-96
2021/07/16 02:44:05;;;;;;;0.10;0.10;;;;;;;19.63;55.82;102257.84;4984944;28;20027;-96
2021/07/16 02:46:33;;;;;;;0.10;0.10;;;;;;;19.42;55.55;102255.94;4993635;28;20039;-92
2021/07/16 02:49:01;;;;;;;0.25;0.25;;;;;;;19.53;55.70;102251.91;5097838;23;20042;-94
2021/07/16 02:51:28;;;;;;;0.10;0.10;;;;;;;19.55;55.53;102259.91;5007703;28;20030;-96
2021/07/16 02:53:55;;;;;;;1.20;1.20;;;;;;;19.62;55.36;102260.59;5005908;28;20030;-96
2021/07/16 02:56:23;;;;;;;0.10;0.10;;;;;;;19.60;55.69;102252.59;5007277;28;20038;-96
2021/07/16 02:58:51;;;;;;;0.10;0.10;;;;;;;19.53;55.32;102249.22;5008397;28;20516;-94
2021/07/16 03:01:17;;;;;;;0.20;0.20;;;;;;;19.59;55.61;102255.31;5008769;28;20046;-96
2021/07/16 03:03:44;;;;;;;0.73;0.28;;;;;;;19.53;55.71;102256.41;5009331;28;20057;-96
2021/07/16 03:06:12;;;;;;;0.10;0.10;;;;;;;19.62;55.44;102260.59;5011392;28;20089;-96
2021/07/16 03:08:44;;;;;;;0.10;0.10;;;;;;;19.66;55.84;102257.72;5012938;28;20026;-96
2021/07/16 03:11:36;;;;;;;0.10;0.10;;;;;;;19.54;54.91;102255.50;5012632;28;20049;-96
2021/07/16 03:14:14;;;;;;;0.10;0.10;;;;;;;19.46;55.29;102260.25;5013421;28;20023;-94
2021/07/16 03:16:41;;;;;;;0.32;0.32;;;;;;;19.48;55.48;102264.63;5011166;28;20030;-96
2021/07/16 03:19:13;;;;;;;0.05;0.05;;;;;;;19.52;55.04;102254.66;5011506;28;20041;-96
2021/07/16 03:21:41;;;;;;;0.20;0.20;;;;;;;19.51;55.23;102260.97;5010703;28;20038;-96
2021/07/16 03:24:29;;;;;;;0.05;0.05;;;;;;;19.51;55.13;102248.38;5013726;28;20089;-96
2021/07/16 03:26:58;;;;;;;0.00;0.00;;;;;;;19.36;54.88;102257.88;5011654;28;20043;-96
2021/07/16 03:29:25;;;;;;;0.10;0.10;;;;;;;19.50;55.21;102252.03;5012013;28;20038;-96
2021/07/16 03:31:53;;;;;;;0.20;0.20;;;;;;;19.41;55.50;102257.72;5011893;28;20079;-95
2021/07/16 03:34:24;;;;;;;0.75;0.75;;;;;;;19.49;55.07;102258.34;5011852;28;20034;-96
2021/07/16 03:36:57;;;;;;;0.30;0.30;;;;;;;19.52;55.26;102260.03;5008876;28;20030;-96
2021/07/16 03:39:27;;;;;;;0.10;0.10;;;;;;;19.58;54.87;102259.81;5012841;28;20046;-96
2021/07/16 03:42:41;;;;;;;0.10;0.10;;;;;;;19.71;54.81;102263.84;5012972;28;20157;-96
2021/07/16 03:45:18;;;;;;;0.10;0.10;;;;;;;19.42;55.39;102262.16;5002880;28;20057;-92
2021/07/16 03:47:48;;;;;;;0.10;0.10;;;;;;;19.53;55.36;102269.88;5013344;28;20030;-96
2021/07/16 03:50:20;;;;;;;0.45;0.30;;;;;;;19.53;55.19;102265.34;4996324;28;20109;-96
2021/07/16 03:52:55;;;;;;;0.30;0.30;;;;;;;19.47;55.35;102265.56;5012999;28;20038;-96
2021/07/16 03:55:22;;;;;;;0.52;0.52;;;;;;;19.45;55.52;102272.81;5012217;28;20046;-96
2021/07/16 03:57:54;;;;;;;0.10;0.10;;;;;;;19.45;55.29;102269.25;5011134;28;20079;-95
2021/07/16 04:00:26;;;;;;;0.10;0.10;;;;;;;19.36;55.64;102274.00;5012395;28;20033;-95
2021/07/16 04:03:00;;;;;;;0.20;0.20;;;;;;;19.54;55.51;102274.31;5012705;28;20026;-94
2021/07/16 04:05:34;;;;;;;2.10;1.27;;;;;;;19.36;55.88;102274.00;5006288;28;20113;-93
2021/07/16 04:08:06;;;;;;;1.13;1.10;;;;;;;19.38;55.65;102277.50;5021187;28;20062;-96
2021/07/16 04:10:39;;;;;;;0.10;0.10;;;;;;;19.51;55.47;102285.16;5011082;28;20046;-96
2021/07/16 04:13:16;;;;;;;1.85;1.05;;;;;;;19.51;55.79;102275.28;5002202;28;20038;-89
2021/07/16 04:16:00;;;;;;;0.65;0.65;;;;;;;19.56;55.63;102275.13;5014720;28;20022;-96
2021/07/16 04:18:39;;;;;;;1.38;1.38;;;;;;;19.56;55.93;102280.50;5013800;28;20022;-96
2021/07/16 04:21:39;;;;;;;0.10;0.10;;;;;;;19.62;55.65;102280.28;5014758;28;20030;-92
2021/07/16 05:01:22;;;;;;;0.10;0.10;;;;;;;19.79;55.27;102286.84;5297826;23;20046;-95
2021/07/16 05:04:04;;;;;;;0.10;0.10;;;;;;;19.71;54.96;102287.13;5002316;28;20040;-95
2021/07/16 05:06:55;;;;;;;0.10;0.10;;;;;;;19.78;55.52;102287.81;4996291;28;20038;-94
2021/07/16 05:51:22;;;;;;;0.15;0.15;;;;;;;20.26;54.74;102321.97;5013071;28;20050;-95
2021/07/16 05:54:13;;;;;;;0.20;0.20;;;;;;;20.30;54.24;102318.22;5013546;28;20066;-96
2021/07/16 05:56:47;;;;;;;0.10;0.10;;;;;;;20.35;54.24;102324.31;5016140;28;20050;-96
2021/07/16 05:59:42;;;;;;;0.10;0.10;;;;;;;20.36;53.89;102334.13;5016648;28;20029;-96
2021/07/16 07:23:47;;;;;;;0.20;0.15;;;;;;;20.80;52.79;102373.78;5990411;23;20285;-96
2021/07/16 10:20:16;;;;;;;0.10;0.10;;;;;;;25.03;44.32;102429.69;4975175;28;20043;-95
2021/07/16 10:54:34;;;;;;;0.95;0.95;;;;;;;25.60;44.36;102429.19;5206272;23;20030;-97
2021/07/16 10:57:20;;;;;;;4.22;0.95;;;;;;;25.70;43.55;102429.50;4969524;28;20050;-96
2021/07/16 11:00:33;;;;;;;6.93;0.77;;;;;;;25.71;43.79;102430.38;4996615;28;20031;-96
2021/07/16 11:03:50;;;;;;;1.00;1.00;;;;;;;25.83;43.59;102426.94;5068080;23;20078;-96
2021/07/16 11:06:57;;;;;;;0.13;0.13;;;;;;;25.55;42.87;102425.00;5007908;28;20072;-96
2021/07/16 11:09:43;;;;;;;1.98;0.68;;;;;;;25.48;43.73;102427.19;5001912;28;20026;-97
2021/07/16 11:14:48;;;;;;;0.32;0.32;;;;;;;25.57;44.83;102429.38;4948068;28;20052;-96
2021/07/16 11:30:34;;;;;;;0.20;0.20;;;;;;;25.99;43.09;102432.31;5151185;27;20707;-96
2021/07/16 11:33:02;;;;;;;0.10;0.10;;;;;;;25.91;42.89;102440.06;5139369;28;20034;-96
2021/07/16 11:35:30;;;;;;;0.75;0.75;;;;;;;26.07;43.60;102432.78;5126805;28;20031;-96
2021/07/16 11:37:56;;;;;;;0.10;0.10;;;;;;;26.15;43.33;102430.44;5143336;28;20028;-96
2021/07/16 11:40:26;;;;;;;0.77;0.77;;;;;;;26.20;42.98;102442.88;5142499;27;20041;-96
2021/07/16 11:43:01;;;;;;;13.35;0.95;;;;;;;26.11;43.00;102439.75;5138627;27;20047;-95
2021/07/16 11:45:35;;;;;;;0.10;0.10;;;;;;;26.18;43.17;102442.97;5141995;27;20024;-95
2021/07/16 11:48:14;;;;;;;0.10;0.10;;;;;;;26.29;43.40;102439.59;5144179;28;20031;-96
2021/07/16 11:50:41;;;;;;;0.20;0.20;;;;;;;26.51;43.07;102439.13;5143486;27;20027;-96
2021/07/16 11:53:09;;;;;;;0.20;0.20;;;;;;;26.50;41.80;102431.94;5145185;27;20044;-95
2021/07/16 11:55:36;;;;;;;0.50;0.50;;;;;;;26.76;42.50;102419.44;5147510;27;20026;-95
2021/07/16 11:58:04;;;;;;;0.10;0.10;;;;;;;26.63;41.61;102429.31;5143977;28;20510;-96
2021/07/16 12:03:15;;;;;;;0.10;0.10;;;;;;;26.53;42.38;102428.16;5079426;27;20494;-95
2021/07/16 12:08:31;;;;;;;0.10;0.10;;;;;;;26.88;42.20;102431.41;5076554;27;1951566;-96
2021/07/16 12:11:14;;;;;;;0.70;0.50;;;;;;;26.94;42.15;102427.38;5131332;22;20041;-95
2021/07/16 12:13:41;;;;;;;0.10;0.10;;;;;;;26.92;43.27;102438.38;5060022;28;20032;-96
2021/07/16 12:16:13;;;;;;;11.07;1.20;;;;;;;26.87;41.48;102436.94;5059417;28;20025;-96
2021/07/16 12:18:41;;;;;;;0.57;0.57;;;;;;;26.88;42.45;102438.66;5060141;28;20187;-96
2021/07/16 12:21:10;;;;;;;0.20;0.20;;;;;;;26.76;42.51;102437.63;5057879;28;20021;-96
2021/07/16 12:23:37;;;;;;;0.30;0.30;;;;;;;26.66;42.68;102434.56;5057311;28;20056;-96
2021/07/16 12:26:14;;;;;;;0.73;0.73;;;;;;;26.70;42.33;102425.25;5056657;28;20395;-96
2021/07/16 12:28:40;;;;;;;0.52;0.52;;;;;;;26.72;42.85;102436.03;5056705;28;20033;-96
2021/07/16 12:31:07;;;;;;;0.57;0.57;;;;;;;26.69;42.46;102433.50;5052346;28;20025;-96
2021/07/16 12:33:35;;;;;;;3.63;0.85;;;;;;;26.34;42.58;102451.03;5055221;28;20072;-96
2021/07/16 12:36:02;;;;;;;0.85;0.85;;;;;;;26.52;44.14;102432.72;5054575;28;20086;-96
2021/07/16 12:38:31;;;;;;;0.20;0.20;;;;;;;26.85;43.25;102425.28;5054965;28;20029;-96
2021/07/16 12:41:13;;;;;;;0.55;0.55;;;;;;;27.29;42.23;102432.38;5051406;28;20029;-96
2021/07/16 12:43:40;;;;;;;0.10;0.10;;;;;;;27.17;41.79;102430.47;5056362;28;20115;-96
2021/07/16 12:46:09;;;;;;;1.00;0.63;;;;;;;26.78;42.28;102422.97;5054047;28;20120;-96
2021/07/16 12:48:36;;;;;;;0.35;0.35;;;;;;;27.00;42.90;102427.00;5051360;28;20116;-96
2021/07/16 12:53:56;;;;;;;0.90;0.57;;;;;;;27.09;42.59;102426.41;5092700;27;20394;-96
2021/07/16 13:02:00;;;;;;;0.15;0.15;;;;;;;26.95;41.03;102440.03;5076263;27;20437;-95
2021/07/16 13:04:30;;;;;;;0.40;0.40;;;;;;;27.36;41.92;102436.44;5072287;28;20032;-95
2021/07/16 13:06:56;;;;;;;0.10;0.10;;;;;;;27.63;41.36;102441.06;5071975;28;20041;-96
2021/07/16 13:09:25;;;;;;;0.88;0.88;;;;;;;27.44;41.21;102442.28;5071390;28;20025;-95
2021/07/16 13:14:51;;;;;;;0.20;0.20;;;;;;;27.57;41.28;102436.03;5092555;28;20400;-96
2021/07/16 13:17:27;;;;;;;0.30;0.30;;;;;;;27.86;41.86;102444.91;5074142;28;20029;-96
2021/07/16 13:22:49;;;;;;;0.30;0.30;;;;;;;27.84;40.71;102454.16;5092591;27;20455;-93
2021/07/16 13:25:18;;;;;;;0.30;0.30;;;;;;;27.77;41.16;102451.84;5071549;28;20033;-95
2021/07/16 13:27:47;;;;;;;0.10;0.10;;;;;;;27.68;41.60;102455.22;5073552;28;20104;-95
2021/07/16 13:30:15;;;;;;;0.28;0.28;;;;;;;27.77;41.82;102451.84;5068897;28;20055;-94
2021/07/16 13:32:43;;;;;;;0.10;0.10;;;;;;;27.71;41.38;102455.00;5052862;28;20021;-95
2021/07/16 13:35:09;;;;;;;0.10;0.10;;;;;;;27.82;41.67;102457.00;5053010;28;20449;-94
2021/07/16 13:37:36;;;;;;;0.47;0.45;;;;;;;27.80;41.57;102452.63;5051170;28;20393;-96
2021/07/16 13:40:07;;;;;;;0.10;0.10;;;;;;;27.82;41.40;102456.13;5050593;28;20423;-94
2021/07/16 13:42:36;;;;;;;0.10;0.10;;;;;;;27.59;41.01;102466.72;5051449;28;20056;-95
2021/07/16 13:45:03;;;;;;;0.10;0.10;;;;;;;27.68;41.85;102470.69;5050960;28;20033;-95
2021/07/16 13:47:30;;;;;;;0.20;0.20;;;;;;;27.20;40.56;102454.75;5051028;28;20022;-94
2021/07/16 13:49:56;;;;;;;0.10;0.10;;;;;;;27.35;42.41;102464.63;5050428;28;20023;-95
2021/07/16 13:52:22;;;;;;;0.22;0.22;;;;;;;27.41;41.48;102457.94;5050996;28;20040;-95
2021/07/16 13:54:48;;;;;;;1.45;1.35;;;;;;;27.32;41.08;102458.53;5051029;28;20036;-95
2021/07/16 13:57:20;;;;;;;0.32;0.32;;;;;;;27.36;40.80;102463.66;5050444;28;20029;-94
2021/07/16 13:59:47;;;;;;;0.20;0.20;;;;;;;27.49;41.31;102454.69;5052109;28;20368;-95
2021/07/16 14:02:13;;;;;;;0.15;0.15;;;;;;;27.51;41.37;102447.31;5050966;28;20033;-96
2021/07/16 14:04:39;;;;;;;8.77;1.85;;;;;;;27.72;41.18;102445.84;5049546;28;20396;-93
2021/07/16 14:07:08;;;;;;;0.57;0.52;;;;;;;27.69;40.74;102450.63;5050166;28;20139;-95
2021/07/16 14:09:34;;;;;;;3.20;1.38;;;;;;;27.44;40.98;102458.63;5050357;28;20056;-95
2021/07/16 14:12:00;;;;;;;0.65;0.65;;;;;;;27.72;41.00;102434.09;5049860;28;20067;-96
2021/07/16 14:14:26;;;;;;;0.10;0.10;;;;;;;27.74;41.13;102441.19;5049730;28;20185;-95
2021/07/16 14:16:52;;;;;;;0.20;0.20;;;;;;;27.68;41.10;102441.59;5049905;28;20116;-94
2021/07/16 14:19:19;;;;;;;0.95;0.85;;;;;;;27.46;41.15;102435.88;5050210;28;20060;-95
2021/07/16 14:21:45;;;;;;;1.45;0.88;;;;;;;27.25;41.43;102441.72;5048873;28;20115;-95
2021/07/16 14:24:11;;;;;;;0.47;0.47;;;;;;;27.41;41.61;102445.19;5049708;28;20025;-93
2021/07/16 14:26:37;;;;;;;0.40;0.40;;;;;;;27.55;41.23;102443.41;5049648;28;20025;-95
2021/07/16 14:29:07;;;;;;;1.00;0.57;;;;;;;27.95;41.96;102435.22;5049612;28;20400;-95
2021/07/16 14:31:33;;;;;;;1.00;1.00;;;;;;;28.03;40.47;102443.75;5049860;28;20029;-95
2021/07/16 14:33:59;;;;;;;0.38;0.38;;;;;;;28.16;40.47;102445.66;5036984;28;20103;-93
2021/07/16 14:36:26;;;;;;;2.00;0.63;;;;;;;27.95;40.51;102437.94;5036799;28;20472;-95
2021/07/16 14:38:55;;;;;;;7.68;1.85;;;;;;;28.15;41.02;102435.72;5036590;28;20061;-96
2021/07/16 14:41:21;;;;;;;0.73;0.70;;;;;;;28.21;39.92;102435.31;5036378;28;20052;-95
2021/07/16 14:43:47;;;;;;;2.90;0.95;;;;;;;28.38;39.81;102439.56;5036999;28;20044;-93
2021/07/16 14:46:14;;;;;;;0.55;0.55;;;;;;;28.37;39.19;102438.69;5036656;28;20037;-95
2021/07/16 14:48:40;;;;;;;0.17;0.17;;;;;;;28.62;38.97;102439.66;5036895;28;20505;-95
2021/07/16 14:51:07;;;;;;;0.75;0.75;;;;;;;28.70;39.28;102445.47;5036861;28;20025;-94
2021/07/16 14:53:33;;;;;;;2.80;1.02;;;;;;;28.46;39.21;102439.03;5036874;28;20037;-94
2021/07/16 14:56:01;;;;;;;0.93;0.93;;;;;;;28.60;39.83;102433.47;5037312;28;20048;-95
2021/07/16 14:58:28;;;;;;;1.05;0.98;;;;;;;28.49;39.76;102445.13;5035891;28;20388;-94
2021/07/16 15:00:54;;;;;;;0.10;0.10;;;;;;;28.57;39.65;102436.41;5036007;28;20107;-94
2021/07/16 15:03:20;;;;;;;0.43;0.43;;;;;;;28.72;39.79;102438.06;5035743;28;20052;-95
2021/07/16 15:05:49;;;;;;;3.65;1.33;;;;;;;28.69;39.06;102446.47;5036103;28;20099;-95
2021/07/16 15:08:19;;;;;;;0.10;0.10;;;;;;;28.94;38.63;102439.22;5035946;28;20030;-94
2021/07/16 15:10:45;;;;;;;0.30;0.30;;;;;;;28.78;38.42;102444.06;5038648;28;20033;-95
2021/07/16 15:13:13;;;;;;;3.90;1.35;;;;;;;28.78;38.86;102433.16;5049638;28;20029;-95
2021/07/16 15:15:39;;;;;;;0.47;0.47;;;;;;;28.82;38.98;102440.97;5048172;28;20469;-94
2021/07/16 15:18:06;;;;;;;0.95;0.65;;;;;;;28.94;39.07;102450.13;5039328;28;20032;-93
2021/07/16 15:20:32;;;;;;;0.38;0.38;;;;;;;28.82;38.51;102434.66;5038538;28;20052;-94
2021/07/16 15:23:01;;;;;;;1.30;1.20;;;;;;;28.94;38.77;102441.09;5035863;28;20044;-95
2021/07/16 15:25:27;;;;;;;0.40;0.40;;;;;;;28.90;38.39;102440.44;5035183;28;20021;-95
2021/07/16 15:28:01;;;;;;;2.30;1.00;;;;;;;28.91;38.40;102433.97;5034993;28;20037;-93
2021/07/16 15:30:30;;;;;;;0.45;0.45;;;;;;;29.03;38.74;102426.75;5035218;28;20034;-95
2021/07/16 15:32:58;;;;;;;0.88;0.88;;;;;;;29.23;39.13;102438.06;5035016;28;20116;-95
2021/07/16 15:35:25;;;;;;;0.15;0.15;;;;;;;29.24;38.26;102432.47;5035051;28;20029;-94
2021/07/16 15:37:52;;;;;;;0.30;0.30;;;;;;;29.38;38.23;102431.47;5035254;28;20472;-96
2021/07/16 15:40:19;;;;;;;2.40;1.02;;;;;;;29.29;37.98;102438.50;5034701;28;20439;-95
2021/07/16 15:42:51;;;;;;;0.10;0.10;;;;;;;29.48;37.97;102437.09;5035245;28;20468;-95
2021/07/16 15:45:23;;;;;;;0.10;0.10;;;;;;;29.39;37.55;102432.34;5033893;28;20025;-95
2021/07/16 15:47:49;;;;;;;0.10;0.10;;;;;;;29.60;37.20;102429.84;5034873;28;20132;-95
2021/07/16 15:50:16;;;;;;;2.38;1.10;;;;;;;29.78;37.29;102433.00;5034763;28;20030;-95
2021/07/16 15:52:44;;;;;;;0.30;0.30;;;;;;;30.00;37.51;102424.06;5034514;28;20033;-95
2021/07/16 15:55:13;;;;;;;0.10;0.10;;;;;;;30.00;37.51;102429.53;5035403;28;20021;-95
2021/07/16 15:57:40;;;;;;;13.45;1.85;;;;;;;30.10;36.87;102426.94;5034547;28;20528;-94
2021/07/16 16:00:09;;;;;;;0.50;0.50;;;;;;;30.13;36.96;102434.88;5035043;28;20112;-96
2021/07/16 16:02:36;;;;;;;0.10;0.10;;;;;;;29.84;37.03;102422.47;5034431;28;20041;-95
2021/07/16 16:05:04;;;;;;;0.17;0.17;;;;;;;29.96;37.33;102426.16;5034829;28;20376;-95
2021/07/16 16:07:30;;;;;;;0.30;0.30;;;;;;;29.83;37.66;102425.31;5034356;28;20465;-96
2021/07/16 16:09:56;;;;;;;5.72;0.85;;;;;;;29.79;37.19;102423.84;5034822;28;20029;-96
2021/07/16 16:12:23;;;;;;;0.90;0.85;;;;;;;29.86;36.88;102427.84;5034684;28;20036;-95
2021/07/16 16:14:49;;;;;;;0.93;0.93;;;;;;;29.83;37.32;102425.31;5034463;28;20120;-95
2021/07/16 16:17:15;;;;;;;1.33;1.23;;;;;;;29.48;37.32;102431.63;5035257;28;20026;-95
2021/07/16 16:19:42;;;;;;;0.30;0.30;;;;;;;29.61;37.51;102431.56;5035062;28;20099;-95
2021/07/16 16:22:08;;;;;;;0.32;0.32;;;;;;;29.61;37.50;102432.47;5036268;28;20469;-94
2021/07/16 16:24:35;;;;;;;1.95;0.30;;;;;;;29.83;37.59;102422.59;5035996;28;20441;-95
2021/07/16 16:27:02;;;;;;;0.05;0.05;;;;;;;29.74;37.58;102420.59;5035251;28;20025;-94
2021/07/16 16:29:28;;;;;;;0.40;0.40;;;;;;;29.66;36.96;102427.50;5035255;28;20025;-93
2021/07/16 16:31:55;;;;;;;0.45;0.45;;;;;;;29.99;37.51;102430.50;5035324;28;20034;-93
2021/07/16 16:34:21;;;;;;;0.85;0.85;;;;;;;29.92;36.68;102445.63;5035284;28;20032;-94
2021/07/16 16:36:48;;;;;;;0.20;0.20;;;;;;;29.89;36.56;102432.19;5034645;28;20029;-94
2021/07/16 16:39:14;;;;;;;0.57;0.55;;;;;;;29.68;36.54;102430.13;5035561;28;20026;-92
2021/07/16 16:41:40;;;;;;;0.68;0.68;;;;;;;29.45;36.76;102431.88;5035056;28;20091;-93
2021/07/16 16:44:06;;;;;;;0.45;0.45;;;;;;;29.46;37.59;102430.88;5034895;28;20030;-92
2021/07/16 16:46:38;;;;;;;1.35;1.20;;;;;;;29.40;38.21;102434.97;5034220;28;20091;-93
2021/07/16 16:49:07;;;;;;;0.00;0.00;;;;;;;29.50;37.87;102443.34;5034084;28;20461;-94
2021/07/16 16:51:34;;;;;;;0.35;0.35;;;;;;;29.21;37.26;102436.31;5034684;28;20451;-92
2021/07/16 16:54:00;;;;;;;0.08;0.08;;;;;;;29.55;37.25;102432.94;5034140;28;20110;-93
2021/07/16 16:56:29;;;;;;;0.82;0.30;;;;;;;29.80;37.05;102436.50;5033734;28;20030;-93
2021/07/16 16:58:55;;;;;;;0.32;0.32;;;;;;;29.83;36.60;102441.72;5034162;28;20124;-95
2021/07/16 17:01:24;;;;;;;0.15;0.15;;;;;;;29.99;36.36;102441.44;5034050;28;20468;-94
2021/07/16 17:03:51;;;;;;;0.50;0.50;;;;;;;30.07;36.87;102443.56;5033742;28;20156;-94
2021/07/16 17:06:20;;;;;;;0.32;0.32;;;;;;;30.28;36.15;102441.00;5032822;28;20460;-94
2021/07/16 17:08:49;;;;;;;0.10;0.10;;;;;;;30.25;35.97;102446.72;5033684;28;20112;-93
2021/07/16 17:11:15;;;;;;;8.00;1.58;;;;;;;30.16;36.22;102446.44;5033678;28;20025;-96
2021/07/16 17:13:41;;;;;;;0.25;0.25;;;;;;;30.40;36.40;102455.56;5033837;28;20032;-93
2021/07/16 17:16:09;;;;;;;0.10;0.10;;;;;;;30.65;35.73;102455.34;5033455;28;20535;-95
2021/07/16 17:18:35;;;;;;;0.35;0.35;;;;;;;30.71;35.70;102448.53;5033963;28;20033;-94
2021/07/16 17:21:02;;;;;;;0.47;0.47;;;;;;;30.42;35.31;102449.00;5034052;28;20538;-95
2021/07/16 17:23:30;;;;;;;0.10;0.10;;;;;;;30.60;35.88;102457.59;5035459;28;20037;-96
2021/07/16 17:25:56;;;;;;;0.20;0.20;;;;;;;30.48;35.94;102453.06;5036671;28;20423;-95
2021/07/16 17:28:22;;;;;;;0.47;0.47;;;;;;;30.41;35.83;102452.72;5035422;28;20074;-94
2021/07/16 17:30:50;;;;;;;0.32;0.32;;;;;;;30.36;35.73;102452.22;5034250;28;20087;-95
2021/07/16 17:33:16;;;;;;;0.40;0.38;;;;;;;30.46;35.19;102449.63;5033581;28;20029;-94
2021/07/16 17:35:43;;;;;;;0.45;0.45;;;;;;;30.58;35.58;102453.25;5033685;28;20087;-94
2021/07/16 17:38:09;;;;;;;0.20;0.20;;;;;;;30.44;35.68;102455.19;5033644;28;20034;-94
2021/07/16 17:40:35;;;;;;;1.02;0.80;;;;;;;30.38;35.60;102463.91;5033970;28;20036;-96
2021/07/16 17:43:01;;;;;;;1.00;0.68;;;;;;;30.26;35.08;102457.53;5033753;28;20068;-96
2021/07/16 17:45:30;;;;;;;0.38;0.38;;;;;;;30.11;35.62;102456.03;5034466;28;20079;-93
2021/07/16 17:47:57;;;;;;;0.10;0.10;;;;;;;29.98;36.08;102462.44;5034818;28;20040;-95
2021/07/16 17:50:27;;;;;;;0.55;0.38;;;;;;;29.96;36.03;102456.22;5034721;28;20472;-92
2021/07/16 17:52:53;;;;;;;13.25;0.68;;;;;;;29.98;36.09;102464.28;5034284;28;20037;-92
2021/07/16 17:55:22;;;;;;;0.25;0.25;;;;;;;29.80;36.17;102469.28;5033320;28;20330;-93
2021/07/16 17:57:49;;;;;;;0.70;0.70;;;;;;;29.86;36.17;102464.22;5033417;28;20116;-93
2021/07/16 18:00:19;;;;;;;0.40;0.40;;;;;;;30.00;35.93;102481.44;5033664;28;20487;-94
2021/07/16 18:02:48;;;;;;;0.43;0.43;;;;;;;29.97;36.07;102466.16;5033481;28;20037;-95
2021/07/16 18:05:15;;;;;;;0.55;0.55;;;;;;;29.91;36.11;102483.03;5032967;28;20481;-95
2021/07/16 18:07:46;;;;;;;10.13;2.05;;;;;;;29.66;36.55;102484.88;5033812;28;20558;-95
2021/07/16 18:10:16;;;;;;;0.65;0.63;;;;;;;29.82;36.52;102489.16;5036548;28;20030;-95
2021/07/16 18:12:44;;;;;;;0.20;0.20;;;;;;;29.76;36.76;102489.63;5037238;28;20022;-96
2021/07/16 18:15:13;;;;;;;0.35;0.35;;;;;;;29.50;36.90;102489.75;5036991;28;20464;-95
2021/07/16 18:17:42;;;;;;;0.25;0.25;;;;;;;29.09;37.79;102499.13;5036880;28;20041;-96
2021/07/16 18:20:10;;;;;;;0.55;0.55;;;;;;;28.84;37.90;102498.16;5036532;28;20432;-94
2021/07/16 18:22:37;;;;;;;0.10;0.10;;;;;;;28.85;38.40;102505.38;5036473;28;20384;-94
2021/07/16 18:25:04;;;;;;;0.28;0.28;;;;;;;28.53;38.44;102501.19;5037596;28;20056;-95
2021/07/16 18:27:31;;;;;;;2.45;1.23;;;;;;;28.14;38.91;102502.09;5038928;28;20469;-96
2021/07/16 18:29:57;;;;;;;0.32;0.32;;;;;;;27.79;39.78;102497.19;5037491;28;20029;-95
2021/07/16 18:32:24;;;;;;;0.13;0.13;;;;;;;27.57;40.21;102506.81;5038813;28;20053;-94
2021/07/16 18:34:50;;;;;;;0.28;0.28;;;;;;;27.70;40.62;102510.47;5036516;28;20036;-94
2021/07/16 18:37:17;;;;;;;3.05;0.75;;;;;;;27.80;41.00;102507.97;5036501;28;20029;-94